createdAt,value
2023-04-08T00:02:01.018Z,96.44
2023-04-08T00:07:23.574Z,96.18
2023-04-08T00:12:15.993Z,96.80
2023-04-08T00:17:15.917Z,96.80
2023-04-08T00:22:15.854Z,97.31
2023-04-08T00:27:15.770Z,97.31
2023-04-08T00:32:15.733Z,97.31
2023-04-08T00:37:15.667Z,97.20
2023-04-08T00:42:15.584Z,97.56
2023-04-08T00:47:15.502Z,97.56
2023-04-08T00:52:15.466Z,97.77
2023-04-08T00:57:15.396Z,98.07
2023-04-08T01:02:15.613Z,98.07
2023-04-08T01:07:15.312Z,98.07
2023-04-08T01:12:15.208Z,98.49
2023-04-08T01:17:15.109Z,98.18
2023-04-08T01:22:16.018Z,98.28
2023-04-08T01:27:14.978Z,98.18
2023-04-08T01:32:14.973Z,97.87
2023-04-08T01:37:14.860Z,97.77
2023-04-08T01:42:14.945Z,97.77
2023-04-08T01:47:14.729Z,98.07
2023-04-08T01:52:14.694Z,98.38
2023-04-08T01:57:14.695Z,98.18
2023-04-08T02:02:14.631Z,98.18
2023-04-08T02:07:14.453Z,97.97
2023-04-08T02:12:14.437Z,98.07
2023-04-08T02:17:14.316Z,98.07
2023-04-08T02:22:14.280Z,98.38
2023-04-08T02:27:14.198Z,98.18
2023-04-08T02:32:14.143Z,98.22
2023-04-08T02:37:14.049Z,98.18
2023-04-08T02:42:14.018Z,98.28
2023-04-08T02:47:13.922Z,98.07
2023-04-08T02:52:13.880Z,98.28
2023-04-08T02:57:13.807Z,98.38
2023-04-08T03:02:13.837Z,98.59
2023-04-08T03:07:13.637Z,98.79
2023-04-08T03:12:13.618Z,98.90
2023-04-08T03:17:13.561Z,98.49
2023-04-08T03:22:13.473Z,98.18
2023-04-08T03:27:13.382Z,98.43
2023-04-08T03:32:13.356Z,98.49
2023-04-08T03:37:13.288Z,98.90
2023-04-08T03:42:13.272Z,98.69
2023-04-08T03:47:13.151Z,99.21
2023-04-08T03:52:13.089Z,99.51
2023-04-08T03:57:13.000Z,99.62
2023-04-08T04:02:13.075Z,99.82
2023-04-08T04:07:12.859Z,99.62
2023-04-08T04:12:12.837Z,99.72
2023-04-08T04:17:23.774Z,99.82
2023-04-08T04:22:16.099Z,99.51
2023-04-08T04:27:16.040Z,99.41
2023-04-08T04:32:16.013Z,99.51
2023-04-08T04:37:15.932Z,98.07
2023-04-08T04:42:15.821Z,98.18
2023-04-08T04:47:15.796Z,97.97
2023-04-08T04:52:15.730Z,97.66
2023-04-08T04:57:15.632Z,97.66
2023-04-08T05:02:15.666Z,97.15
2023-04-08T05:07:15.854Z,97.25
2023-04-08T05:12:15.449Z,96.73
2023-04-08T05:17:15.400Z,97.05
2023-04-08T05:22:15.332Z,97.77
2023-04-08T05:27:15.271Z,96.94
2023-04-08T05:32:15.201Z,96.39
2023-04-08T05:37:15.143Z,96.48
2023-04-08T05:42:15.109Z,95.72
2023-04-08T05:47:15.001Z,95.21
2023-04-08T05:52:14.929Z,93.73
2023-04-08T05:57:14.929Z,93.01
2023-04-08T06:02:14.872Z,91.57
2023-04-08T06:07:14.742Z,91.06
2023-04-08T06:12:14.628Z,91.78
2023-04-08T06:17:14.606Z,92.08
2023-04-08T06:22:14.519Z,92.44
2023-04-08T06:27:14.467Z,92.33
2023-04-08T06:32:14.387Z,92.33
2023-04-08T06:37:14.348Z,91.72
2023-04-08T06:42:14.273Z,91.99
2023-04-08T06:47:14.215Z,91.63
2023-04-08T06:52:15.227Z,89.33
2023-04-08T06:57:14.079Z,88.76
2023-04-08T07:02:14.047Z,90.67
2023-04-08T07:07:14.029Z,89.33
2023-04-08T07:12:13.887Z,90.05
2023-04-08T07:17:13.834Z,87.71
2023-04-08T07:22:13.730Z,86.34
2023-04-08T07:27:13.680Z,86.04
2023-04-08T07:32:13.638Z,85.52
2023-04-08T07:37:13.554Z,83.54
2023-04-08T07:42:13.467Z,82.64
2023-04-08T07:47:13.422Z,79.36
2023-04-08T07:52:13.347Z,76.29
2023-04-08T07:57:13.285Z,76.18
2023-04-08T08:02:13.337Z,67.25
2023-04-08T08:07:13.158Z,61.17
2023-04-08T08:12:13.093Z,64.07
2023-04-08T08:17:12.997Z,71.73
2023-04-08T08:22:13.025Z,75.74
2023-04-08T08:27:12.885Z,76.56
2023-04-08T08:32:12.826Z,75.16
2023-04-08T08:37:12.745Z,75.37
2023-04-08T08:42:12.675Z,76.08
2023-04-08T08:47:12.612Z,75.88
2023-04-08T08:52:12.578Z,76.53
2023-04-08T08:57:12.522Z,77.21
2023-04-08T09:02:12.486Z,78.16
2023-04-08T09:07:12.341Z,78.37
2023-04-08T09:12:12.336Z,76.84
2023-04-08T09:17:12.233Z,76.22
2023-04-08T09:22:12.123Z,77.25
2023-04-08T09:27:12.098Z,78.67
2023-04-08T09:32:12.020Z,74.99
2023-04-08T09:37:11.945Z,75.37
2023-04-08T09:42:11.876Z,73.02
2023-04-08T09:47:11.816Z,73.81
2023-04-08T09:52:11.759Z,75.51
2023-04-08T09:57:12.489Z,75.51
2023-04-08T10:02:11.684Z,75.51
2023-04-08T10:07:11.587Z,74.69
2023-04-08T10:12:11.498Z,74.59
2023-04-08T10:17:11.436Z,72.82
2023-04-08T10:22:11.340Z,74.69
2023-04-08T10:27:11.296Z,74.18
2023-04-08T10:32:11.284Z,74.45
2023-04-08T10:37:11.194Z,74.11
2023-04-08T10:42:11.075Z,72.00
2023-04-08T10:47:11.027Z,71.26
2023-04-08T10:52:11.084Z,69.76
2023-04-08T10:57:10.863Z,68.62
2023-04-08T11:02:10.905Z,68.24
2023-04-08T11:07:10.776Z,69.22
2023-04-08T11:12:10.668Z,70.24
2023-04-08T11:17:10.653Z,72.17
2023-04-08T11:22:10.555Z,72.17
2023-04-08T11:27:10.464Z,72.69
2023-04-08T11:32:10.414Z,70.48
2023-04-08T11:37:10.360Z,69.59
2023-04-08T11:42:10.271Z,71.12
2023-04-08T11:47:10.194Z,70.40
2023-04-08T11:52:10.136Z,69.59
2023-04-08T11:57:10.199Z,67.55
2023-04-08T12:02:10.072Z,71.80
2023-04-08T12:07:09.962Z,67.38
2023-04-08T12:12:09.921Z,67.29
2023-04-08T12:17:09.821Z,70.24
2023-04-08T12:22:09.828Z,68.37
2023-04-08T12:27:09.746Z,68.34
2023-04-08T12:32:09.604Z,69.15
2023-04-08T12:37:09.578Z,68.82
2023-04-08T12:42:09.507Z,71.53
2023-04-08T12:47:09.587Z,67.26
2023-04-08T12:52:09.379Z,66.00
2023-04-08T12:57:09.343Z,65.71
2023-04-08T13:02:09.290Z,65.68
2023-04-08T13:07:09.184Z,66.93
2023-04-08T13:12:09.102Z,65.27
2023-04-08T13:17:09.009Z,63.55
2023-04-08T13:22:08.960Z,65.55
2023-04-08T13:27:08.947Z,68.69
2023-04-08T13:32:08.900Z,68.44
2023-04-08T13:37:08.770Z,69.97
2023-04-08T13:42:08.666Z,68.38
2023-04-08T13:47:08.644Z,70.24
2023-04-08T13:52:08.591Z,70.78
2023-04-08T13:57:08.520Z,71.77
2023-04-08T14:02:08.425Z,69.29
2023-04-08T14:07:08.386Z,69.23
2023-04-08T14:12:08.293Z,69.97
2023-04-08T14:17:08.245Z,68.55
2023-04-08T14:22:08.164Z,69.84
2023-04-08T14:27:08.118Z,72.01
2023-04-08T14:32:08.001Z,72.99
2023-04-08T14:37:07.980Z,70.01
2023-04-08T14:42:07.882Z,70.62
2023-04-08T14:47:07.803Z,69.13
2023-04-08T14:52:07.827Z,69.97
2023-04-08T14:57:07.725Z,70.86
2023-04-08T15:02:07.721Z,72.11
2023-04-08T15:07:07.595Z,72.96
2023-04-08T15:12:07.522Z,74.11
2023-04-08T15:17:07.433Z,73.63
2023-04-08T15:22:07.397Z,74.62
2023-04-08T15:27:07.313Z,72.72
2023-04-08T15:32:07.259Z,71.30
2023-04-08T15:37:07.179Z,73.33
2023-04-08T15:42:07.114Z,72.52
2023-04-08T15:47:07.080Z,72.31
2023-04-08T15:52:06.943Z,73.57
2023-04-08T15:57:06.902Z,72.45
2023-04-08T16:02:06.870Z,73.71
2023-04-08T16:07:06.789Z,75.33
2023-04-08T16:12:06.686Z,75.57
2023-04-08T16:17:06.703Z,75.60
2023-04-08T16:22:06.597Z,75.51
2023-04-08T16:27:06.517Z,76.01
2023-04-08T16:32:06.416Z,75.95
2023-04-08T16:37:06.412Z,72.04
2023-04-08T16:42:06.319Z,71.87
2023-04-08T16:47:06.208Z,74.72
2023-04-08T16:52:06.214Z,75.37
2023-04-08T16:57:06.092Z,73.67
2023-04-08T17:02:06.068Z,75.51
2023-04-08T17:07:06.123Z,78.77
2023-04-08T17:12:05.901Z,77.78
2023-04-08T17:17:05.824Z,78.94
2023-04-08T17:22:05.804Z,80.78
2023-04-08T17:27:05.700Z,80.61
2023-04-08T17:32:05.670Z,80.51
2023-04-08T17:37:05.569Z,80.51
2023-04-08T17:42:05.584Z,81.16
2023-04-08T17:47:05.411Z,80.75
2023-04-08T17:52:05.421Z,80.85
2023-04-08T17:57:05.314Z,80.07
2023-04-08T18:02:05.325Z,81.60
2023-04-08T18:07:05.319Z,79.25
2023-04-08T18:12:05.114Z,78.75
2023-04-08T18:17:05.215Z,80.48
2023-04-08T18:22:05.947Z,82.53
2023-04-08T18:27:05.149Z,82.97
2023-04-08T18:32:04.917Z,84.30
2023-04-08T18:37:04.782Z,85.02
2023-04-08T18:42:04.715Z,84.65
2023-04-08T18:47:04.649Z,85.97
2023-04-08T18:52:04.592Z,85.47
2023-04-08T18:57:04.559Z,86.18
2023-04-08T19:02:04.614Z,86.73
2023-04-08T19:07:04.385Z,86.32
2023-04-08T19:12:04.340Z,85.61
2023-04-08T19:17:04.349Z,83.76
2023-04-08T19:22:04.190Z,86.63
2023-04-08T19:27:04.129Z,86.67
2023-04-08T19:32:04.016Z,86.46
2023-04-08T19:37:04.265Z,85.89
2023-04-08T19:42:03.944Z,86.71
2023-04-08T19:47:03.913Z,86.40
2023-04-08T19:52:03.810Z,87.32
2023-04-08T19:57:03.722Z,88.14
2023-04-08T20:02:03.686Z,87.06
2023-04-08T20:07:03.702Z,86.34
2023-04-08T20:12:03.859Z,87.47
2023-04-08T20:17:03.441Z,87.77
2023-04-08T20:22:03.626Z,87.88
2023-04-08T20:27:03.316Z,86.85
2023-04-08T20:32:03.254Z,87.06
2023-04-08T20:37:03.201Z,87.67
2023-04-08T20:42:03.101Z,87.16
2023-04-08T20:47:03.085Z,87.98
2023-04-08T20:52:02.970Z,87.98
2023-04-08T20:57:02.914Z,87.16
2023-04-08T21:02:02.897Z,87.47
2023-04-08T21:07:02.882Z,87.16
2023-04-08T21:12:02.770Z,86.18
2023-04-08T21:17:02.677Z,85.56
2023-04-08T21:22:02.584Z,84.33
2023-04-08T21:27:02.535Z,83.61
2023-04-08T21:32:02.513Z,84.74
2023-04-08T21:37:02.389Z,84.68
2023-04-08T21:42:02.306Z,83.69
2023-04-08T21:47:02.345Z,83.07
2023-04-08T21:52:02.185Z,82.36
2023-04-08T21:57:02.096Z,82.56
2023-04-08T22:02:02.247Z,82.70
2023-04-08T22:07:01.993Z,83.01
2023-04-08T22:12:01.895Z,83.05
2023-04-08T22:17:01.877Z,81.62
2023-04-08T22:22:01.767Z,80.38
2023-04-08T22:27:01.735Z,80.28
2023-04-08T22:32:01.672Z,80.69
2023-04-08T22:37:01.598Z,80.18
2023-04-08T22:42:01.507Z,78.85
2023-04-08T22:47:01.464Z,79.25
2023-04-08T22:52:01.463Z,79.97
2023-04-08T22:57:01.317Z,79.15
2023-04-08T23:02:01.303Z,78.43
2023-04-08T23:07:01.193Z,78.53
2023-04-08T23:12:01.108Z,77.71
2023-04-08T23:17:01.661Z,77.71
2023-04-08T23:22:01.010Z,78.23
2023-04-08T23:27:00.930Z,78.23
2023-04-08T23:32:00.855Z,77.03
2023-04-08T23:37:00.812Z,76.31
2023-04-08T23:42:00.720Z,75.70
2023-04-08T23:47:00.689Z,76.72
2023-04-08T23:52:00.610Z,76.72
2023-04-08T23:57:00.550Z,76.93
